Meteo Giornale » Osservazioni meteo Francia » Montpellier
ore: 21:00 - Osservazioni Meteo Montpellier
Lat. 43° 35' N Lon. 3° 58' E Alt. 5 metri s.l.m.
25 °C
Sereno
Temp. 24 Ore
18 °C
31 °C
Sud-Ovest
16.7 Km/h
Dew point 17 °C
Umidità 61 %
Visibilità 10 Km
Il sole sorge alle ore 07:07
Il sole tramonta alle ore 20:20
| Data e Ora | Cielo e Fenomeni | T °C | DP °C | Um. % | Pres. hPa | Vis. km | Vento km/h | |
|---|---|---|---|---|---|---|---|---|
| Oggi h: 21:00 | Sereno | 25 | 17 | 61 | 1018 | 10 | SO 16.7 | |
| Oggi h: 20:30 | Sereno | 25 | 18 | 65 | 1018 | 10 | SO 20.3 | |
| Oggi h: 20:00 | Sereno | 26 | 19 | 65 | 1017 | 10 | SO 18.5 | |
| Oggi h: 19:30 | Sereno | 28 | 16 | 48 | 1017 | 10 | SO 14.8 | |
| Oggi h: 19:00 | Sereno | 29 | 16 | 45 | 1017 | 10 | SO 18.5 | |
| Oggi h: 18:30 | Sereno | 28 | 15 | 45 | 1017 | 10 | SO 24 | |
| Oggi h: 18:00 | Sereno | 28 | 17 | 51 | 1017 | 10 | SO 29.6 | |
| Oggi h: 17:30 | Sereno | 28 | 15 | 45 | 1017 | 10 | SO 35.2 | |
| Oggi h: 17:00 | Sereno | 28 | 16 | 48 | 1017 | 10 | SO 31.5 | |
| Oggi h: 16:30 | Sereno | 28 | 16 | 48 | 1017 | 10 | SO 29.6 | |
| Oggi h: 16:00 | Sereno | 31 | 13 | 33 | 1017 | 10 | S/SO 14.8 | |
| Oggi h: 15:30 | Sereno | 30 | 14 | 37 | 1018 | 10 | S/SO 13 | |
| Oggi h: 15:00 | Sereno | 30 | 13 | 35 | 1018 | 10 | S/SO 11.1 | |
| Oggi h: 14:30 | Sereno | 30 | 14 | 37 | 1018 | 10 | S/SO 13 | |
| Oggi h: 14:00 | Sereno | 30 | 14 | 37 | 1019 | 10 | S/SO 16.7 | |
| Oggi h: 13:30 | Sereno | 31 | 11 | 29 | 1019 | 10 | N 7.4 | |
| Oggi h: 13:00 | Sereno | 30 | 11 | 30 | 1019 | 10 | O/NO 9.3 | |
| Oggi h: 12:30 | Sereno | 30 | 10 | 28 | 1020 | 10 | N 5.5 | |
| Oggi h: 12:00 | Sereno | 29 | 12 | 35 | 1020 | 10 | N/NE 16.7 | |
| Oggi h: 11:30 | Sereno | 28 | 12 | 37 | 1020 | 10 | N 18.5 | |
| Oggi h: 11:00 | Sereno | 28 | 12 | 37 | 1020 | 10 | N/NE 22.2 | |
| Oggi h: 10:30 | Sereno | 27 | 12 | 39 | 1020 | 10 | N 24 | |
| Oggi h: 10:00 | Sereno | 26 | 11 | 39 | 1020 | 10 | N 22.2 | |
| Oggi h: 09:30 | Sereno | 25 | 12 | 44 | 1020 | 10 | N 14.8 | |
| Oggi h: 09:00 | Sereno | 24 | 12 | 47 | 1020 | 10 | N/NO 11.1 | |
| Oggi h: 08:30 | Sereno | 23 | 12 | 49 | 1020 | 10 | NO 9.3 | |
| Oggi h: 08:00 | Sereno | 21 | 13 | 60 | 1020 | 10 | NO 11.1 | |
| Oggi h: 07:30 | Sereno | 19 | 12 | 63 | 1019 | 10 | NO 11.1 | |
| Oggi h: 07:00 | Sereno | 20 | 11 | 56 | 1019 | 10 | NO 9.3 | |
| Oggi h: 06:30 | Sereno | 19 | 11 | 59 | 1019 | 10 | N 5.5 | |
| Oggi h: 06:00 | Sereno | 19 | 12 | 63 | 1019 | 10 | N/NO 7.4 | |
| Oggi h: 05:30 | Sereno | 18 | 12 | 67 | 1019 | 10 | N 7.4 | |
| Oggi h: 05:00 | Sereno | 20 | 12 | 59 | 1019 | 10 | N/NO 7.4 | |
| Oggi h: 04:30 | Sereno | 21 | 11 | 52 | 1019 | 10 | NO 11.1 | |
| Oggi h: 04:00 | Sereno | 21 | 11 | 52 | 1019 | 10 | N/NO 7.4 | |
| Oggi h: 03:30 | Sereno | 21 | 12 | 56 | 1020 | 10 | N/NO 11.1 | |
| Oggi h: 03:00 | Sereno | 22 | 11 | 49 | 1020 | 10 | NO 9.3 | |
| Oggi h: 02:30 | Sereno | 23 | 11 | 46 | 1020 | 10 | NO 11.1 | |
| Oggi h: 02:00 | Sereno | 24 | 10 | 41 | 1020 | 10 | O/NO 9.3 | |
| Oggi h: 01:30 | Sereno | 24 | 11 | 43 | 1020 | 10 | NO 13 | |
| Oggi h: 01:00 | Sereno | 24 | 11 | 43 | 1020 | 10 | NO 13 | |
| Oggi h: 00:30 | Sereno | 25 | 11 | 41 | 1020 | 10 | NO 14.8 | |
| Oggi h: 00:00 | Sereno | 25 | 11 | 41 | 1019 | 10 | O/NO 13 | |
| Ieri h: 23:30 | Sereno | 26 | 10 | 36 | 1019 | 10 | O/NO 13 | |
| Ieri h: 23:00 | Sereno | 26 | 10 | 36 | 1019 | 10 | NO 16.7 | |
| Ieri h: 22:30 | Sereno | 27 | 10 | 34 | 1018 | 10 | NO 18.5 | |
| Ieri h: 22:00 | Sereno | 27 | 11 | 36 | 1018 | 10 | O/NO 20.3 | |



